createdAt,value
2019-06-26T00:01:00.310Z,17.60
2019-06-26T00:03:28.927Z,17.60
2019-06-26T00:05:57.507Z,17.70
2019-06-26T00:08:26.132Z,17.70
2019-06-26T00:10:54.715Z,17.70
2019-06-26T00:13:26.599Z,17.70
2019-06-26T00:15:53.754Z,17.60
2019-06-26T00:18:22.460Z,17.70
2019-06-26T00:20:51.083Z,17.60
2019-06-26T00:23:19.673Z,17.60
2019-06-26T00:25:48.269Z,17.60
2019-06-26T00:28:16.930Z,17.60
2019-06-26T00:30:45.501Z,17.60
2019-06-26T00:33:14.136Z,17.70
2019-06-26T00:35:42.796Z,17.60
2019-06-26T00:38:11.451Z,17.70
2019-06-26T00:40:40.272Z,17.60
2019-06-26T00:43:08.922Z,17.70
2019-06-26T00:45:37.592Z,17.70
2019-06-26T00:48:06.547Z,17.70
2019-06-26T00:50:35.211Z,17.70
2019-06-26T00:53:03.948Z,17.70
2019-06-26T00:55:32.781Z,17.60
2019-06-26T00:58:01.362Z,17.60
2019-06-26T01:00:42.001Z,17.50
2019-06-26T01:03:10.558Z,17.60
2019-06-26T01:05:39.148Z,17.60
2019-06-26T01:08:08.240Z,17.60
2019-06-26T01:10:36.844Z,17.60
2019-06-26T01:13:05.420Z,17.50
2019-06-26T01:15:33.994Z,17.50
2019-06-26T01:18:02.583Z,17.50
2019-06-26T01:20:31.491Z,17.50
2019-06-26T01:23:00.108Z,17.40
2019-06-26T01:25:28.649Z,17.40
2019-06-26T01:27:57.346Z,17.30
2019-06-26T01:30:26.362Z,17.30
2019-06-26T01:32:55.372Z,17.30
2019-06-26T01:35:23.932Z,17.30
2019-06-26T01:37:52.585Z,17.30
2019-06-26T01:40:21.618Z,17.30
2019-06-26T01:42:50.631Z,17.20
2019-06-26T01:45:19.440Z,17.20
2019-06-26T01:47:48.299Z,17.30
2019-06-26T01:50:17.135Z,17.20
2019-06-26T01:52:45.718Z,17.30
2019-06-26T01:55:14.443Z,17.30
2019-06-26T01:57:43.090Z,17.30
2019-06-26T02:00:12.511Z,17.20
2019-06-26T02:02:41.173Z,17.20
2019-06-26T02:05:10.274Z,17.20
2019-06-26T02:07:38.933Z,17.20
2019-06-26T02:10:09.396Z,17.20
2019-06-26T02:12:38.110Z,17.20
2019-06-26T02:15:07.522Z,17.20
2019-06-26T02:17:36.348Z,17.20
2019-06-26T02:20:08.435Z,17.20
2019-06-26T02:22:37.341Z,17.20
2019-06-26T02:25:06.673Z,17.20
2019-06-26T02:27:35.581Z,17.20
2019-06-26T02:30:07.930Z,17.20
2019-06-26T02:32:36.496Z,17.10
2019-06-26T02:35:09.899Z,17.10
2019-06-26T02:37:37.774Z,17.10
2019-06-26T02:40:06.898Z,17.10
2019-06-26T02:42:35.550Z,17.10
2019-06-26T02:45:05.984Z,17.10
2019-06-26T02:47:35.500Z,17.00
2019-06-26T02:50:06.767Z,17.00
2019-06-26T02:52:35.418Z,17.00
2019-06-26T02:55:06.683Z,16.90
2019-06-26T02:57:35.447Z,16.90
2019-06-26T03:00:05.394Z,16.90
2019-06-26T03:02:33.960Z,16.90
2019-06-26T03:05:02.784Z,16.90
2019-06-26T03:07:31.592Z,16.80
2019-06-26T03:10:00.208Z,16.80
2019-06-26T03:12:28.761Z,16.80
2019-06-26T03:15:08.261Z,16.80
2019-06-26T03:17:27.558Z,16.70
2019-06-26T03:19:56.180Z,16.70
2019-06-26T03:22:24.785Z,16.70
2019-06-26T03:24:53.438Z,16.70
2019-06-26T03:27:22.066Z,16.60
2019-06-26T03:29:50.650Z,16.70
2019-06-26T03:32:19.220Z,16.60
2019-06-26T03:34:47.839Z,16.60
2019-06-26T03:37:16.392Z,16.60
2019-06-26T03:39:44.965Z,16.60
2019-06-26T03:42:13.615Z,16.50
2019-06-26T03:44:42.261Z,16.50
2019-06-26T03:47:10.899Z,16.60
2019-06-26T03:49:39.549Z,16.50
2019-06-26T03:52:08.220Z,16.50
2019-06-26T03:54:37.091Z,16.50
2019-06-26T03:57:06.169Z,16.50
2019-06-26T03:59:34.760Z,16.40
2019-06-26T04:02:04.086Z,16.50
2019-06-26T04:04:32.656Z,16.50
2019-06-26T04:07:01.218Z,16.50
2019-06-26T04:09:29.807Z,16.40
2019-06-26T04:11:58.468Z,16.40
2019-06-26T04:14:27.104Z,16.50
2019-06-26T04:16:56.032Z,16.50
2019-06-26T04:19:24.889Z,16.50
2019-06-26T04:21:53.454Z,16.40
2019-06-26T04:24:22.031Z,16.40
2019-06-26T04:26:50.904Z,16.40
2019-06-26T04:29:19.465Z,16.40
2019-06-26T04:31:48.124Z,16.30
2019-06-26T04:34:16.775Z,16.40
2019-06-26T04:36:45.366Z,16.40
2019-06-26T04:39:13.945Z,16.30
2019-06-26T04:41:42.501Z,16.40
2019-06-26T04:44:11.411Z,16.40
2019-06-26T04:46:40.079Z,16.40
2019-06-26T04:49:08.660Z,16.40
2019-06-26T04:51:37.309Z,16.40
2019-06-26T04:54:05.885Z,16.40
2019-06-26T04:56:34.441Z,16.50
2019-06-26T04:59:03.086Z,16.50
2019-06-26T05:01:31.734Z,16.50
2019-06-26T05:04:00.412Z,16.60
2019-06-26T05:06:28.973Z,16.60
2019-06-26T05:08:57.548Z,16.60
2019-06-26T05:11:26.771Z,16.60
2019-06-26T05:13:55.471Z,16.70
2019-06-26T05:16:24.070Z,16.60
2019-06-26T05:18:52.987Z,16.70
2019-06-26T05:21:21.645Z,16.70
2019-06-26T05:23:50.566Z,16.70
2019-06-26T05:26:19.256Z,16.70
2019-06-26T05:28:47.815Z,16.80
2019-06-26T05:31:16.388Z,16.80
2019-06-26T05:33:45.003Z,16.80
2019-06-26T05:36:13.627Z,16.90
2019-06-26T05:38:42.214Z,16.90
2019-06-26T05:41:10.795Z,16.90
2019-06-26T05:43:39.424Z,17.00
2019-06-26T05:46:08.509Z,17.00
2019-06-26T05:48:37.126Z,17.10
2019-06-26T05:51:05.849Z,17.10
2019-06-26T05:53:34.423Z,17.20
2019-06-26T05:56:03.191Z,17.20
2019-06-26T05:58:31.760Z,17.20
2019-06-26T06:01:00.454Z,17.20
2019-06-26T06:03:29.399Z,17.20
2019-06-26T06:05:58.128Z,17.20
2019-06-26T06:08:26.713Z,17.20
2019-06-26T06:10:58.160Z,17.30
2019-06-26T06:13:25.849Z,17.30
2019-06-26T06:15:54.463Z,17.30
2019-06-26T06:18:23.027Z,17.30
2019-06-26T06:20:51.615Z,17.30
2019-06-26T06:23:20.195Z,17.30
2019-06-26T06:25:48.758Z,17.30
2019-06-26T06:28:17.620Z,17.30
2019-06-26T06:30:46.188Z,17.40
2019-06-26T06:33:14.700Z,17.40
2019-06-26T06:35:43.276Z,17.50
2019-06-26T06:38:11.934Z,17.50
2019-06-26T06:40:41.381Z,17.60
2019-06-26T06:43:09.959Z,17.60
2019-06-26T06:45:38.606Z,17.70
2019-06-26T06:48:07.318Z,17.80
2019-06-26T06:50:35.818Z,17.80
2019-06-26T06:53:04.635Z,17.90
2019-06-26T06:55:33.205Z,18.10
2019-06-26T06:58:01.752Z,18.10
2019-06-26T07:00:30.398Z,18.20
2019-06-26T07:02:58.966Z,18.30
2019-06-26T07:05:27.627Z,18.40
2019-06-26T07:07:56.665Z,18.40
2019-06-26T07:10:25.308Z,18.50
2019-06-26T07:12:53.946Z,18.50
2019-06-26T07:15:23.363Z,18.50
2019-06-26T07:17:52.390Z,18.50
2019-06-26T07:20:21.097Z,18.50
2019-06-26T07:22:49.672Z,18.60
2019-06-26T07:25:18.322Z,18.60
2019-06-26T07:27:47.330Z,18.80
2019-06-26T07:30:16.143Z,19.00
2019-06-26T07:32:45.008Z,19.00
2019-06-26T07:35:13.776Z,19.00
2019-06-26T07:37:42.336Z,19.20
2019-06-26T07:40:12.121Z,19.20
2019-06-26T07:42:40.762Z,19.40
2019-06-26T07:45:09.965Z,19.50
2019-06-26T07:47:43.637Z,19.60
2019-06-26T07:50:09.212Z,19.70
2019-06-26T07:52:37.853Z,19.70
2019-06-26T07:55:11.614Z,19.70
2019-06-26T07:57:38.299Z,19.80
2019-06-26T08:00:08.213Z,20.10
2019-06-26T08:02:36.930Z,20.20
2019-06-26T08:05:09.088Z,20.30
2019-06-26T08:07:38.468Z,20.20
2019-06-26T08:10:11.044Z,20.20
2019-06-26T08:12:39.626Z,20.20
2019-06-26T08:15:08.624Z,20.20
2019-06-26T08:17:37.224Z,20.50
2019-06-26T08:20:06.558Z,20.70
2019-06-26T08:22:35.268Z,20.70
2019-06-26T08:25:06.106Z,20.50
2019-06-26T08:27:35.015Z,20.40
2019-06-26T08:30:05.351Z,20.30
2019-06-26T08:32:33.901Z,20.40
2019-06-26T08:35:02.552Z,20.30
2019-06-26T08:37:31.419Z,20.40
2019-06-26T08:40:00.011Z,20.30
2019-06-26T08:42:28.677Z,20.20
2019-06-26T08:44:57.276Z,20.10
2019-06-26T08:47:25.915Z,20.30
2019-06-26T08:49:54.490Z,20.40
2019-06-26T08:52:23.216Z,20.40
2019-06-26T08:54:51.779Z,20.60
2019-06-26T08:57:20.656Z,20.40
2019-06-26T08:59:49.303Z,20.20
2019-06-26T09:02:17.879Z,20.10
2019-06-26T09:04:46.509Z,20.20
2019-06-26T09:07:15.150Z,20.30
2019-06-26T09:09:43.738Z,20.30
2019-06-26T09:12:12.684Z,20.10
2019-06-26T09:14:41.225Z,20.00
2019-06-26T09:17:09.877Z,19.90
2019-06-26T09:19:38.449Z,19.70
2019-06-26T09:22:08.675Z,19.80
2019-06-26T09:24:37.591Z,19.70
2019-06-26T09:27:06.268Z,19.50
2019-06-26T09:29:34.902Z,19.40
2019-06-26T09:32:03.619Z,19.60
2019-06-26T09:34:33.050Z,19.80
2019-06-26T09:37:01.687Z,19.80
2019-06-26T09:39:30.261Z,19.80
2019-06-26T09:41:59.132Z,19.70
2019-06-26T09:44:28.027Z,19.90
2019-06-26T09:46:56.596Z,19.90
2019-06-26T09:49:25.205Z,19.90
2019-06-26T09:51:53.752Z,19.70
2019-06-26T09:54:22.416Z,19.70
2019-06-26T09:56:50.994Z,19.60
2019-06-26T09:59:19.579Z,19.90
2019-06-26T10:01:48.146Z,20.00
2019-06-26T10:04:16.709Z,20.00
2019-06-26T10:06:45.302Z,19.90
2019-06-26T10:09:13.845Z,19.80
2019-06-26T10:11:42.423Z,19.90
2019-06-26T10:14:10.985Z,19.80
2019-06-26T10:16:39.691Z,19.80
2019-06-26T10:19:10.706Z,19.70
2019-06-26T10:21:38.759Z,19.80
2019-06-26T10:24:07.343Z,19.80
2019-06-26T10:26:35.978Z,19.70
2019-06-26T10:29:04.725Z,19.80
2019-06-26T10:31:33.349Z,19.90
2019-06-26T10:34:02.345Z,20.20
2019-06-26T10:36:31.092Z,20.10
2019-06-26T10:38:59.683Z,20.20
2019-06-26T10:41:28.246Z,20.10
2019-06-26T10:43:56.818Z,20.00
2019-06-26T10:46:25.450Z,20.00
2019-06-26T10:48:54.048Z,19.90
2019-06-26T10:51:22.971Z,19.90
2019-06-26T10:53:51.566Z,19.90
2019-06-26T10:56:20.193Z,19.90
2019-06-26T10:58:48.804Z,19.90
2019-06-26T11:01:17.388Z,19.70
2019-06-26T11:03:46.033Z,19.60
2019-06-26T11:06:14.618Z,19.70
2019-06-26T11:08:43.256Z,19.70
2019-06-26T11:11:12.275Z,19.50
2019-06-26T11:13:40.906Z,19.50
2019-06-26T11:16:09.529Z,19.70
2019-06-26T11:18:38.161Z,19.70
2019-06-26T11:21:06.764Z,19.70
2019-06-26T11:23:35.401Z,19.90
2019-06-26T11:26:04.067Z,19.80
2019-06-26T11:28:32.604Z,19.70
2019-06-26T11:31:01.177Z,19.90
2019-06-26T11:33:29.751Z,19.90
2019-06-26T11:35:58.390Z,20.00
2019-06-26T11:38:26.969Z,19.70
2019-06-26T11:40:55.579Z,19.50
2019-06-26T11:43:24.435Z,19.60
2019-06-26T11:45:53.099Z,19.80
2019-06-26T11:48:21.744Z,19.80
2019-06-26T11:50:50.332Z,19.80
2019-06-26T11:53:18.919Z,19.90
2019-06-26T11:55:47.529Z,20.00
2019-06-26T11:58:16.120Z,19.80
2019-06-26T12:00:44.675Z,19.80
2019-06-26T12:03:13.519Z,20.00
2019-06-26T12:05:42.062Z,20.10
2019-06-26T12:08:10.623Z,20.30
2019-06-26T12:10:39.243Z,20.30
2019-06-26T12:13:07.912Z,20.40
2019-06-26T12:15:36.475Z,20.40
2019-06-26T12:18:05.219Z,20.40
2019-06-26T12:20:33.760Z,20.60
2019-06-26T12:23:02.342Z,20.60
2019-06-26T12:25:30.904Z,20.70
2019-06-26T12:27:59.467Z,20.60
2019-06-26T12:30:28.247Z,20.50
2019-06-26T12:33:03.013Z,20.20
2019-06-26T12:35:27.016Z,20.40
2019-06-26T12:37:55.520Z,20.40
2019-06-26T12:40:24.258Z,20.50
2019-06-26T12:42:55.612Z,20.70
2019-06-26T12:45:23.240Z,20.80
2019-06-26T12:47:52.119Z,20.60
2019-06-26T12:50:34.562Z,20.70
2019-06-26T12:52:53.454Z,20.80
2019-06-26T12:55:22.150Z,20.90
2019-06-26T12:57:50.709Z,20.90
2019-06-26T13:00:19.648Z,21.00
2019-06-26T13:02:48.257Z,21.10
2019-06-26T13:05:17.603Z,21.00
2019-06-26T13:07:46.449Z,20.70
2019-06-26T13:10:15.799Z,20.90
2019-06-26T13:12:45.917Z,21.30
2019-06-26T13:15:14.996Z,21.40
2019-06-26T13:17:43.701Z,21.40
2019-06-26T13:20:12.654Z,21.10
2019-06-26T13:22:41.347Z,20.90
2019-06-26T13:25:10.528Z,20.90
2019-06-26T13:27:39.246Z,20.70
2019-06-26T13:30:08.650Z,20.80
2019-06-26T13:32:37.269Z,21.10
2019-06-26T13:35:07.287Z,21.20
2019-06-26T13:37:35.851Z,21.00
2019-06-26T13:40:08.955Z,21.10
2019-06-26T13:42:37.596Z,20.90
2019-06-26T13:45:09.117Z,21.00
2019-06-26T13:47:37.680Z,21.10
2019-06-26T13:50:07.832Z,21.30
2019-06-26T13:52:36.373Z,21.50
2019-06-26T13:55:05.904Z,21.60
2019-06-26T13:57:34.507Z,21.40
2019-06-26T14:00:04.797Z,21.50
2019-06-26T14:02:33.462Z,21.60
2019-06-26T14:05:02.397Z,21.80
2019-06-26T14:07:30.966Z,21.70
2019-06-26T14:09:59.508Z,21.80
2019-06-26T14:12:28.164Z,21.60
2019-06-26T14:14:58.201Z,21.70
2019-06-26T14:17:26.889Z,21.90
2019-06-26T14:19:55.454Z,21.90
2019-06-26T14:22:24.128Z,22.00
2019-06-26T14:24:54.253Z,22.20
2019-06-26T14:27:22.928Z,22.40
2019-06-26T14:29:51.485Z,22.80
2019-06-26T14:32:20.140Z,23.10
2019-06-26T14:34:48.725Z,23.10
2019-06-26T14:37:17.389Z,23.10
2019-06-26T14:39:45.946Z,23.40
2019-06-26T14:42:14.596Z,23.40
2019-06-26T14:44:43.250Z,23.50
2019-06-26T14:47:11.818Z,23.60
2019-06-26T14:49:40.389Z,23.90
2019-06-26T14:52:08.957Z,24.30
2019-06-26T14:54:37.546Z,24.70
2019-06-26T14:57:06.523Z,25.70
2019-06-26T14:59:35.535Z,26.30
2019-06-26T15:02:04.251Z,27.10
2019-06-26T15:04:32.793Z,27.80
2019-06-26T15:07:02.202Z,28.00
2019-06-26T15:09:30.849Z,28.30
2019-06-26T15:11:59.432Z,28.70
2019-06-26T15:14:27.983Z,28.50
2019-06-26T15:16:56.586Z,28.90
2019-06-26T15:19:25.157Z,29.40
2019-06-26T15:21:58.394Z,29.90
2019-06-26T15:24:24.034Z,29.80
2019-06-26T15:26:52.633Z,30.40
2019-06-26T15:29:21.670Z,29.40
2019-06-26T15:31:50.289Z,29.90
2019-06-26T15:34:18.872Z,29.80
2019-06-26T15:36:47.444Z,29.80
2019-06-26T15:39:16.072Z,29.80
2019-06-26T15:41:44.659Z,29.70
2019-06-26T15:44:13.281Z,29.30
2019-06-26T15:46:41.851Z,29.70
2019-06-26T15:49:10.453Z,30.10
2019-06-26T15:51:39.166Z,29.90
2019-06-26T15:54:07.813Z,29.50
2019-06-26T15:56:36.490Z,28.60
2019-06-26T15:59:05.106Z,28.70
2019-06-26T16:01:33.987Z,29.70
2019-06-26T16:04:02.557Z,29.10
2019-06-26T16:06:31.140Z,28.60
2019-06-26T16:08:59.724Z,28.30
2019-06-26T16:11:28.289Z,28.10
2019-06-26T16:13:56.874Z,28.20
2019-06-26T16:16:25.497Z,27.80
2019-06-26T16:18:56.069Z,27.00
2019-06-26T16:21:24.609Z,27.10
2019-06-26T16:23:53.551Z,28.40
2019-06-26T16:26:22.133Z,28.90
2019-06-26T16:28:51.156Z,29.40
2019-06-26T16:31:19.734Z,30.40
2019-06-26T16:33:48.345Z,29.70
2019-06-26T16:36:16.921Z,29.50
2019-06-26T16:38:45.486Z,30.10
2019-06-26T16:41:14.131Z,30.50
2019-06-26T16:43:42.716Z,30.90
2019-06-26T16:46:11.323Z,31.00
2019-06-26T16:48:40.022Z,31.20
2019-06-26T16:51:08.690Z,31.70
2019-06-26T16:53:37.328Z,31.60
2019-06-26T16:56:06.059Z,31.50
2019-06-26T16:58:34.647Z,31.70
2019-06-26T17:01:03.225Z,31.50
2019-06-26T17:03:31.822Z,31.80
2019-06-26T17:06:00.383Z,31.90
2019-06-26T17:08:31.898Z,31.60
2019-06-26T17:11:00.465Z,31.50
2019-06-26T17:13:29.040Z,31.10
2019-06-26T17:15:57.670Z,30.60
2019-06-26T17:18:26.299Z,31.00
2019-06-26T17:20:54.994Z,30.50
2019-06-26T17:23:26.329Z,30.90
2019-06-26T17:25:55.289Z,30.90
2019-06-26T17:28:32.708Z,31.10
2019-06-26T17:31:01.376Z,30.70
2019-06-26T17:33:30.009Z,30.60
2019-06-26T17:35:58.658Z,29.50
2019-06-26T17:38:27.204Z,28.30
2019-06-26T17:40:59.241Z,27.50
2019-06-26T17:43:26.037Z,26.50
2019-06-26T17:45:54.766Z,25.60
2019-06-26T17:48:23.387Z,24.60
2019-06-26T17:50:51.911Z,24.00
2019-06-26T17:53:22.027Z,23.70
2019-06-26T17:55:50.898Z,23.60
2019-06-26T17:58:19.464Z,23.30
2019-06-26T18:00:48.047Z,22.80
2019-06-26T18:03:16.729Z,22.60
2019-06-26T18:05:45.419Z,22.50
2019-06-26T18:08:14.139Z,22.10
2019-06-26T18:10:42.715Z,22.20
2019-06-26T18:13:11.290Z,21.80
2019-06-26T18:15:39.936Z,21.50
2019-06-26T18:18:08.566Z,21.50
2019-06-26T18:20:37.188Z,21.10
2019-06-26T18:23:07.858Z,21.10
2019-06-26T18:25:36.130Z,21.20
2019-06-26T18:28:04.752Z,21.20
2019-06-26T18:30:33.463Z,21.00
2019-06-26T18:33:02.257Z,20.70
2019-06-26T18:35:30.896Z,20.60
2019-06-26T18:37:59.486Z,20.40
2019-06-26T18:40:28.129Z,20.20
2019-06-26T18:42:56.723Z,20.00
2019-06-26T18:45:25.294Z,19.80
2019-06-26T18:47:53.948Z,19.60
2019-06-26T18:50:22.572Z,19.50
2019-06-26T18:52:51.146Z,19.40
2019-06-26T18:55:19.858Z,19.30
2019-06-26T18:57:48.445Z,19.10
2019-06-26T19:00:17.646Z,19.00
2019-06-26T19:02:46.347Z,19.00
2019-06-26T19:05:15.007Z,19.00
2019-06-26T19:07:43.641Z,18.90
2019-06-26T19:10:12.504Z,18.80
2019-06-26T19:12:41.202Z,18.80
2019-06-26T19:15:10.229Z,18.70
2019-06-26T19:17:42.288Z,18.60
2019-06-26T19:20:11.165Z,18.60
2019-06-26T19:22:39.820Z,18.50
2019-06-26T19:25:10.132Z,18.40
2019-06-26T19:27:39.057Z,18.40
2019-06-26T19:30:08.962Z,18.40
2019-06-26T19:32:38.021Z,18.30
2019-06-26T19:35:17.769Z,18.10
2019-06-26T19:37:38.046Z,18.00
2019-06-26T19:40:08.674Z,18.00
2019-06-26T19:42:37.537Z,17.90
2019-06-26T19:45:07.772Z,17.90
2019-06-26T19:47:36.461Z,17.80
2019-06-26T19:50:08.929Z,17.80
2019-06-26T19:52:37.689Z,17.70
2019-06-26T19:55:06.660Z,17.70
2019-06-26T19:57:35.379Z,17.60
2019-06-26T20:00:10.791Z,17.50
2019-06-26T20:02:39.426Z,17.50
2019-06-26T20:05:08.970Z,17.40
2019-06-26T20:07:37.603Z,17.40
2019-06-26T20:10:09.725Z,17.30
2019-06-26T20:12:38.422Z,17.30
2019-06-26T20:15:08.228Z,17.30
2019-06-26T20:17:36.828Z,17.20
2019-06-26T20:20:08.813Z,17.20
2019-06-26T20:22:37.473Z,17.20
2019-06-26T20:25:09.550Z,17.20
2019-06-26T20:27:38.260Z,17.10
2019-06-26T20:30:09.787Z,17.10
2019-06-26T20:32:38.071Z,17.00
2019-06-26T20:35:07.586Z,17.00
2019-06-26T20:37:36.577Z,16.90
2019-06-26T20:40:06.595Z,16.80
2019-06-26T20:42:35.339Z,16.80
2019-06-26T20:45:08.557Z,16.80
2019-06-26T20:47:37.531Z,16.80
2019-06-26T20:50:07.194Z,16.80
2019-06-26T20:52:35.935Z,16.70
2019-06-26T20:55:05.570Z,16.70
2019-06-26T20:57:34.159Z,16.70
2019-06-26T21:00:02.749Z,16.70
2019-06-26T21:02:31.331Z,16.60
2019-06-26T21:04:59.945Z,16.60
2019-06-26T21:07:28.540Z,16.60
2019-06-26T21:09:57.169Z,16.60
2019-06-26T21:12:25.742Z,16.60
2019-06-26T21:14:54.414Z,16.60
2019-06-26T21:17:25.664Z,16.60
2019-06-26T21:19:53.313Z,16.60
2019-06-26T21:22:21.951Z,16.50
2019-06-26T21:24:50.590Z,16.50
2019-06-26T21:27:19.230Z,16.50
2019-06-26T21:29:47.887Z,16.50
2019-06-26T21:32:16.451Z,16.50
2019-06-26T21:34:45.102Z,16.50
2019-06-26T21:37:13.834Z,16.40
2019-06-26T21:39:42.497Z,16.40
2019-06-26T21:42:11.141Z,16.40
2019-06-26T21:44:40.100Z,16.40
2019-06-26T21:47:08.814Z,16.40
2019-06-26T21:49:37.566Z,16.40
2019-06-26T21:52:06.234Z,16.30
2019-06-26T21:54:34.860Z,16.30
2019-06-26T21:57:03.484Z,16.40
2019-06-26T21:59:32.067Z,16.30
2019-06-26T22:02:00.749Z,16.30
2019-06-26T22:04:29.396Z,16.30
2019-06-26T22:06:58.257Z,16.30
2019-06-26T22:09:26.907Z,16.20
2019-06-26T22:11:55.617Z,16.20
2019-06-26T22:14:24.219Z,16.20
2019-06-26T22:16:52.812Z,16.20
2019-06-26T22:19:21.419Z,16.20
2019-06-26T22:21:50.038Z,16.20
2019-06-26T22:24:18.606Z,16.20
2019-06-26T22:26:47.219Z,16.10
2019-06-26T22:29:15.928Z,16.10
2019-06-26T22:31:44.685Z,16.10
2019-06-26T22:34:13.308Z,16.10
2019-06-26T22:36:51.276Z,16.10
2019-06-26T22:39:12.218Z,16.10
2019-06-26T22:41:40.782Z,16.10
2019-06-26T22:44:09.394Z,16.10
2019-06-26T22:46:37.994Z,16.00
2019-06-26T22:49:06.728Z,16.00
2019-06-26T22:51:35.383Z,16.00
2019-06-26T22:54:04.083Z,16.00
2019-06-26T22:56:32.655Z,16.00
2019-06-26T22:59:01.466Z,15.90
2019-06-26T23:01:30.083Z,15.90
2019-06-26T23:03:58.731Z,15.90
2019-06-26T23:06:27.309Z,15.90
2019-06-26T23:08:55.890Z,15.90
2019-06-26T23:11:24.483Z,15.90
2019-06-26T23:13:53.146Z,15.90
2019-06-26T23:16:21.883Z,15.90
2019-06-26T23:18:50.446Z,15.80
2019-06-26T23:21:19.058Z,15.80
2019-06-26T23:23:47.606Z,15.70
2019-06-26T23:26:24.111Z,15.80
2019-06-26T23:28:46.521Z,15.70
2019-06-26T23:31:15.161Z,15.80
2019-06-26T23:33:43.751Z,15.80
2019-06-26T23:36:12.700Z,15.70
2019-06-26T23:38:41.304Z,15.70
2019-06-26T23:41:10.215Z,15.70
2019-06-26T23:43:38.806Z,15.70
2019-06-26T23:46:07.772Z,15.60
2019-06-26T23:48:36.431Z,15.60
2019-06-26T23:51:05.047Z,15.60
2019-06-26T23:53:33.560Z,15.50
2019-06-26T23:56:02.221Z,15.60
2019-06-26T23:58:30.845Z,15.50
